createdAt,value
2018-04-25T00:01:53.275Z,12.10
2018-04-25T00:04:20.116Z,12.10
2018-04-25T00:06:46.959Z,12.10
2018-04-25T00:09:14.314Z,12.10
2018-04-25T00:11:41.156Z,12.20
2018-04-25T00:14:07.998Z,12.20
2018-04-25T00:16:35.047Z,12.20
2018-04-25T00:19:01.777Z,12.30
2018-04-25T00:21:28.734Z,12.30
2018-04-25T00:23:55.448Z,12.30
2018-04-25T00:26:22.311Z,12.30
2018-04-25T00:28:49.157Z,12.30
2018-04-25T00:31:15.964Z,12.30
2018-04-25T00:33:43.555Z,12.40
2018-04-25T00:36:10.215Z,12.40
2018-04-25T00:38:37.035Z,12.40
2018-04-25T00:41:03.869Z,12.40
2018-04-25T00:43:30.717Z,12.50
2018-04-25T00:45:58.070Z,12.50
2018-04-25T00:48:25.016Z,12.50
2018-04-25T00:50:51.737Z,12.60
2018-04-25T00:53:18.821Z,12.60
2018-04-25T00:55:45.648Z,12.60
2018-04-25T00:58:12.593Z,12.70
2018-04-25T01:00:39.293Z,12.70
2018-04-25T01:03:06.175Z,12.80
2018-04-25T01:05:33.120Z,12.80
2018-04-25T01:08:00.167Z,12.90
2018-04-25T01:10:27.009Z,12.90
2018-04-25T01:12:53.851Z,12.90
2018-04-25T01:15:20.691Z,12.90
2018-04-25T01:17:47.638Z,13.00
2018-04-25T01:20:14.449Z,13.00
2018-04-25T01:22:41.323Z,13.00
2018-04-25T01:28:07.775Z,13.00
2018-04-25T01:30:41.637Z,13.00
2018-04-25T01:33:08.401Z,13.10
2018-04-25T01:35:35.265Z,13.10
2018-04-25T01:38:05.992Z,13.10
2018-04-25T01:40:32.843Z,13.10
2018-04-25T01:43:00.540Z,13.10
2018-04-25T01:45:45.061Z,13.10
2018-04-25T01:48:15.682Z,13.10
2018-04-25T01:50:43.406Z,13.10
2018-04-25T01:53:22.692Z,13.10
2018-04-25T01:56:07.861Z,13.10
2018-04-25T01:58:52.837Z,13.10
2018-04-25T02:01:26.224Z,13.10
2018-04-25T02:03:56.894Z,13.00
2018-04-25T02:06:23.654Z,13.10
2018-04-25T02:08:51.159Z,13.10
2018-04-25T02:11:17.996Z,13.10
2018-04-25T02:13:44.747Z,13.10
2018-04-25T02:16:11.470Z,13.10
2018-04-25T02:18:38.417Z,13.20
2018-04-25T02:21:05.365Z,13.20
2018-04-25T02:23:32.207Z,13.20
2018-04-25T02:25:59.152Z,13.30
2018-04-25T02:28:25.984Z,13.30
2018-04-25T02:30:52.733Z,13.30
2018-04-25T02:33:19.476Z,13.40
2018-04-25T02:35:46.418Z,13.40
2018-04-25T02:38:13.155Z,13.40
2018-04-25T02:40:39.858Z,13.40
2018-04-25T02:43:07.562Z,13.40
2018-04-25T02:45:34.359Z,13.40
2018-04-25T02:48:01.860Z,13.50
2018-04-25T02:50:28.705Z,13.50
2018-04-25T02:52:55.519Z,13.50
2018-04-25T02:55:22.389Z,13.60
2018-04-25T02:57:49.334Z,13.60
2018-04-25T03:00:16.180Z,13.60
2018-04-25T03:02:43.328Z,13.60
2018-04-25T03:05:10.037Z,13.60
2018-04-25T03:07:36.812Z,13.60
2018-04-25T03:10:03.748Z,13.60
2018-04-25T03:12:30.694Z,13.60
2018-04-25T03:14:57.946Z,13.70
2018-04-25T03:17:24.800Z,13.70
2018-04-25T03:19:51.634Z,13.70
2018-04-25T03:22:18.471Z,13.70
2018-04-25T03:24:45.313Z,13.70
2018-04-25T03:27:11.973Z,13.80
2018-04-25T03:29:38.790Z,13.80
2018-04-25T03:32:05.469Z,13.80
2018-04-25T03:34:32.127Z,13.80
2018-04-25T03:36:59.013Z,13.90
2018-04-25T03:39:25.698Z,13.90
2018-04-25T03:41:52.489Z,13.90
2018-04-25T03:44:19.335Z,13.90
2018-04-25T03:46:45.994Z,13.90
2018-04-25T03:49:12.816Z,13.90
2018-04-25T03:51:39.567Z,13.90
2018-04-25T03:54:07.115Z,13.90
2018-04-25T03:56:34.060Z,13.90
2018-04-25T03:59:00.901Z,13.90
2018-04-25T04:01:27.638Z,13.90
2018-04-25T04:03:54.329Z,14.00
2018-04-25T04:06:21.765Z,14.00
2018-04-25T04:08:48.577Z,14.00
2018-04-25T04:11:15.415Z,14.00
2018-04-25T04:13:42.262Z,14.00
2018-04-25T04:16:08.922Z,14.00
2018-04-25T04:18:35.741Z,14.00
2018-04-25T04:21:02.481Z,14.00
2018-04-25T04:23:29.324Z,14.00
2018-04-25T04:25:56.055Z,14.00
2018-04-25T04:28:22.800Z,14.00
2018-04-25T04:30:49.957Z,14.00
2018-04-25T04:33:16.697Z,14.00
2018-04-25T04:35:43.341Z,14.00
2018-04-25T04:38:10.067Z,14.00
2018-04-25T04:40:36.802Z,14.10
2018-04-25T04:43:03.655Z,14.10
2018-04-25T04:45:30.496Z,14.10
2018-04-25T04:47:57.236Z,14.10
2018-04-25T04:50:24.190Z,14.10
2018-04-25T04:52:51.125Z,14.20
2018-04-25T04:55:17.865Z,14.20
2018-04-25T04:57:44.708Z,14.20
2018-04-25T05:00:11.407Z,14.20
2018-04-25T05:02:38.295Z,14.10
2018-04-25T05:05:05.234Z,14.10
2018-04-25T05:07:32.077Z,14.10
2018-04-25T05:09:59.018Z,14.10
2018-04-25T05:12:25.673Z,14.10
2018-04-25T05:14:52.350Z,14.10
2018-04-25T05:17:19.241Z,14.10
2018-04-25T05:19:45.917Z,14.10
2018-04-25T05:22:12.721Z,14.10
2018-04-25T05:24:39.517Z,14.20
2018-04-25T05:27:07.222Z,14.30
2018-04-25T05:29:33.965Z,14.20
2018-04-25T05:32:00.764Z,14.30
2018-04-25T05:34:27.650Z,14.50
2018-04-25T05:36:54.494Z,14.50
2018-04-25T05:39:21.190Z,14.50
2018-04-25T05:41:48.688Z,14.60
2018-04-25T05:44:15.425Z,14.60
2018-04-25T05:46:42.167Z,14.60
2018-04-25T05:49:09.009Z,14.60
2018-04-25T05:51:35.771Z,14.70
2018-04-25T05:54:02.727Z,14.80
2018-04-25T05:56:29.540Z,14.80
2018-04-25T05:58:56.262Z,14.80
2018-04-25T06:01:23.018Z,14.80
2018-04-25T06:03:49.963Z,14.80
2018-04-25T06:06:16.803Z,14.80
2018-04-25T06:08:43.489Z,14.80
2018-04-25T06:11:10.794Z,14.90
2018-04-25T06:13:37.639Z,15.00
2018-04-25T06:16:04.369Z,15.00
2018-04-25T06:18:31.117Z,15.00
2018-04-25T06:20:57.820Z,15.00
2018-04-25T06:23:25.416Z,14.90
2018-04-25T06:25:52.259Z,14.90
2018-04-25T06:28:18.937Z,14.80
2018-04-25T06:30:45.738Z,14.80
2018-04-25T06:33:12.417Z,14.80
2018-04-25T06:35:39.322Z,14.70
2018-04-25T06:38:06.164Z,14.70
2018-04-25T06:40:33.008Z,14.70
2018-04-25T06:42:59.846Z,14.80
2018-04-25T06:45:26.691Z,14.70
2018-04-25T06:47:53.366Z,14.70
2018-04-25T06:50:20.506Z,14.70
2018-04-25T06:52:47.322Z,14.60
2018-04-25T06:55:13.958Z,14.60
2018-04-25T06:57:41.311Z,14.50
2018-04-25T07:00:08.047Z,14.60
2018-04-25T07:02:34.889Z,14.60
2018-04-25T07:05:01.628Z,14.60
2018-04-25T07:07:28.469Z,14.70
2018-04-25T07:09:55.318Z,14.80
2018-04-25T07:12:22.010Z,14.70
2018-04-25T07:14:49.505Z,14.70
2018-04-25T07:17:16.458Z,14.70
2018-04-25T07:19:43.197Z,14.80
2018-04-25T07:22:10.143Z,14.90
2018-04-25T07:24:36.890Z,15.00
2018-04-25T07:27:03.721Z,15.10
2018-04-25T07:29:30.673Z,15.40
2018-04-25T07:31:57.265Z,15.80
2018-04-25T07:34:24.970Z,15.90
2018-04-25T07:36:51.811Z,15.90
2018-04-25T07:39:18.653Z,15.90
2018-04-25T07:41:45.685Z,15.80
2018-04-25T07:44:12.382Z,15.70
2018-04-25T07:46:39.895Z,15.80
2018-04-25T07:49:06.590Z,15.80
2018-04-25T07:51:34.265Z,15.90
2018-04-25T07:54:01.674Z,15.80
2018-04-25T07:56:28.599Z,15.80
2018-04-25T07:58:55.443Z,15.70
2018-04-25T08:01:22.179Z,15.80
2018-04-25T08:03:48.921Z,15.80
2018-04-25T08:06:15.661Z,16.10
2018-04-25T08:08:42.505Z,16.60
2018-04-25T08:11:09.162Z,16.90
2018-04-25T08:13:47.937Z,16.70
2018-04-25T08:16:26.782Z,16.40
2018-04-25T08:19:05.908Z,16.10
2018-04-25T08:21:41.978Z,16.00
2018-04-25T08:24:08.816Z,15.80
2018-04-25T08:26:35.552Z,15.40
2018-04-25T08:29:02.215Z,15.00
2018-04-25T08:31:29.036Z,14.70
2018-04-25T08:33:56.186Z,14.50
2018-04-25T08:36:23.029Z,14.20
2018-04-25T08:38:49.931Z,14.00
2018-04-25T08:41:16.882Z,13.90
2018-04-25T08:43:44.376Z,13.60
2018-04-25T08:46:11.220Z,13.60
2018-04-25T08:48:38.056Z,13.70
2018-04-25T08:51:04.747Z,13.80
2018-04-25T08:53:31.540Z,14.10
2018-04-25T08:56:01.249Z,14.50
2018-04-25T08:58:27.989Z,14.60
2018-04-25T09:00:54.926Z,14.60
2018-04-25T09:03:21.777Z,14.60
2018-04-25T09:05:48.624Z,14.80
2018-04-25T09:08:15.466Z,15.10
2018-04-25T09:10:42.200Z,15.10
2018-04-25T09:13:09.038Z,15.00
2018-04-25T09:15:35.785Z,15.00
2018-04-25T09:18:02.726Z,15.00
2018-04-25T09:20:29.463Z,15.20
2018-04-25T09:22:56.309Z,15.40
2018-04-25T09:25:23.255Z,15.60
2018-04-25T09:27:49.993Z,15.80
2018-04-25T09:30:16.724Z,15.90
2018-04-25T09:32:43.576Z,16.20
2018-04-25T09:35:10.316Z,16.50
2018-04-25T09:37:37.160Z,16.90
2018-04-25T09:40:04.513Z,17.00
2018-04-25T09:42:31.357Z,17.20
2018-04-25T09:44:58.198Z,17.20
2018-04-25T09:47:25.035Z,17.10
2018-04-25T09:49:51.775Z,17.10
2018-04-25T09:52:18.500Z,16.90
2018-04-25T09:54:45.153Z,16.80
2018-04-25T09:57:11.822Z,16.60
2018-04-25T09:59:38.639Z,16.30
2018-04-25T10:02:05.449Z,16.10
2018-04-25T10:04:33.140Z,15.50
2018-04-25T10:06:59.984Z,15.40
2018-04-25T10:09:27.474Z,15.10
2018-04-25T10:11:55.205Z,15.00
2018-04-25T10:14:21.944Z,14.90
2018-04-25T10:16:49.093Z,15.00
2018-04-25T10:19:15.937Z,15.10
2018-04-25T10:21:42.779Z,15.10
2018-04-25T10:24:09.622Z,15.20
2018-04-25T10:26:36.460Z,15.20
2018-04-25T10:29:03.199Z,15.30
2018-04-25T10:31:29.943Z,15.30
2018-04-25T10:33:56.785Z,15.30
2018-04-25T10:36:23.425Z,15.10
2018-04-25T10:38:50.101Z,15.00
2018-04-25T10:41:16.902Z,14.80
2018-04-25T10:43:43.634Z,14.70
2018-04-25T10:46:10.378Z,14.40
2018-04-25T10:48:37.225Z,14.20
2018-04-25T10:51:04.072Z,14.00
2018-04-25T10:53:31.218Z,13.90
2018-04-25T10:55:57.952Z,13.70
2018-04-25T10:58:24.692Z,13.60
2018-04-25T11:00:51.537Z,13.70
2018-04-25T11:03:18.277Z,13.80
2018-04-25T11:05:45.121Z,13.70
2018-04-25T11:08:11.964Z,13.60
2018-04-25T11:10:38.805Z,13.50
2018-04-25T11:13:05.650Z,13.40
2018-04-25T11:15:32.326Z,13.30
2018-04-25T11:17:59.126Z,13.30
2018-04-25T11:20:25.990Z,13.30
2018-04-25T11:22:52.913Z,13.40
2018-04-25T11:25:19.654Z,13.40
2018-04-25T11:27:46.597Z,13.50
2018-04-25T11:30:13.338Z,13.50
2018-04-25T11:32:40.486Z,13.50
2018-04-25T11:35:07.228Z,13.40
2018-04-25T11:37:33.962Z,13.20
2018-04-25T11:40:00.646Z,13.00
2018-04-25T11:42:28.161Z,12.90
2018-04-25T11:44:55.007Z,12.80
2018-04-25T11:47:21.835Z,12.80
2018-04-25T11:49:48.690Z,12.90
2018-04-25T11:52:15.401Z,12.90
2018-04-25T11:54:42.168Z,13.00
2018-04-25T11:57:08.991Z,13.20
2018-04-25T11:59:35.666Z,13.30
2018-04-25T12:02:02.595Z,13.40
2018-04-25T12:04:29.329Z,13.50
2018-04-25T12:06:55.993Z,13.40
2018-04-25T12:09:22.678Z,13.40
2018-04-25T12:11:49.551Z,13.40
2018-04-25T12:14:16.395Z,13.50
2018-04-25T12:16:43.055Z,13.40
2018-04-25T12:19:09.885Z,13.40
2018-04-25T12:21:36.613Z,13.40
2018-04-25T12:24:03.464Z,13.40
2018-04-25T12:26:30.405Z,13.30
2018-04-25T12:28:57.140Z,13.20
2018-04-25T12:31:24.087Z,13.20
2018-04-25T12:33:51.031Z,13.20
2018-04-25T12:36:17.874Z,13.30
2018-04-25T12:38:44.716Z,13.50
2018-04-25T12:41:11.403Z,13.80
2018-04-25T12:43:38.290Z,13.90
2018-04-25T12:46:04.970Z,14.00
2018-04-25T12:48:31.605Z,14.10
2018-04-25T12:50:58.831Z,14.30
2018-04-25T12:53:25.668Z,14.40
2018-04-25T12:55:52.310Z,14.40
2018-04-25T12:58:19.147Z,14.40
2018-04-25T13:00:45.986Z,14.40
2018-04-25T13:03:12.828Z,14.40
2018-04-25T13:05:39.569Z,14.40
2018-04-25T13:08:06.421Z,14.20
2018-04-25T13:10:33.257Z,14.10
2018-04-25T13:13:00.406Z,13.90
2018-04-25T13:15:27.058Z,13.80
2018-04-25T13:17:53.701Z,13.70
2018-04-25T13:20:20.730Z,13.50
2018-04-25T13:22:47.464Z,13.30
2018-04-25T13:25:14.311Z,13.20
2018-04-25T13:27:41.153Z,13.10
2018-04-25T13:30:08.292Z,12.90
2018-04-25T13:32:35.043Z,12.70
2018-04-25T13:35:01.885Z,12.60
2018-04-25T13:37:28.571Z,12.60
2018-04-25T13:39:55.253Z,12.50
2018-04-25T13:42:22.103Z,12.60
2018-04-25T13:44:48.953Z,12.60
2018-04-25T13:47:15.785Z,12.70
2018-04-25T13:49:42.486Z,12.70
2018-04-25T13:52:09.985Z,12.80
2018-04-25T13:54:36.725Z,12.80
2018-04-25T13:57:03.567Z,12.90
2018-04-25T13:59:30.408Z,13.00
2018-04-25T14:01:57.045Z,13.20
2018-04-25T14:04:23.780Z,13.30
2018-04-25T14:06:50.529Z,13.40
2018-04-25T14:09:17.262Z,13.50
2018-04-25T14:11:43.919Z,13.50
2018-04-25T14:14:10.641Z,13.70
2018-04-25T14:16:37.591Z,13.80
2018-04-25T14:19:04.402Z,13.90
2018-04-25T14:21:31.376Z,14.00
2018-04-25T14:23:58.420Z,14.10
2018-04-25T14:26:25.369Z,14.10
2018-04-25T14:28:52.210Z,14.10
2018-04-25T14:31:19.053Z,14.20
2018-04-25T14:33:45.697Z,14.30
2018-04-25T14:36:12.532Z,14.40
2018-04-25T14:38:39.483Z,14.20
2018-04-25T14:41:06.273Z,14.10
2018-04-25T14:43:33.773Z,14.00
2018-04-25T14:46:00.721Z,13.90
2018-04-25T14:48:27.568Z,13.90
2018-04-25T14:50:54.217Z,13.90
2018-04-25T14:53:21.043Z,13.80
2018-04-25T14:55:47.785Z,13.80
2018-04-25T14:58:14.647Z,13.80
2018-04-25T15:00:41.468Z,13.70
2018-04-25T15:03:08.204Z,13.60
2018-04-25T15:05:34.962Z,13.60
2018-04-25T15:08:01.784Z,13.50
2018-04-25T15:10:28.439Z,13.40
2018-04-25T15:12:55.371Z,13.40
2018-04-25T15:15:22.112Z,13.40
2018-04-25T15:17:49.057Z,13.50
2018-04-25T15:20:15.791Z,13.60
2018-04-25T15:22:42.574Z,13.60
2018-04-25T15:25:09.374Z,13.60
2018-04-25T15:27:36.075Z,13.60
2018-04-25T15:30:03.676Z,13.80
2018-04-25T15:32:30.410Z,13.80
2018-04-25T15:34:57.254Z,13.90
2018-04-25T15:37:24.100Z,14.10
2018-04-25T15:39:50.934Z,14.10
2018-04-25T15:42:17.785Z,14.00
2018-04-25T15:44:44.628Z,14.00
2018-04-25T15:47:12.233Z,14.10
2018-04-25T15:49:39.133Z,14.00
2018-04-25T15:52:05.766Z,14.10
2018-04-25T15:54:32.613Z,14.20
2018-04-25T15:56:59.565Z,14.40
2018-04-25T15:59:26.506Z,14.50
2018-04-25T16:01:53.447Z,14.70
2018-04-25T16:04:20.285Z,14.70
2018-04-25T16:06:47.028Z,14.70
2018-04-25T16:09:13.871Z,14.70
2018-04-25T16:11:40.615Z,14.70
2018-04-25T16:14:07.451Z,14.70
2018-04-25T16:16:34.269Z,14.70
2018-04-25T16:19:01.240Z,14.70
2018-04-25T16:21:27.976Z,14.60
2018-04-25T16:23:54.665Z,14.60
2018-04-25T16:26:21.452Z,14.50
2018-04-25T16:28:48.302Z,14.50
2018-04-25T16:31:15.166Z,14.50
2018-04-25T16:33:41.987Z,14.40
2018-04-25T16:36:08.738Z,14.30
2018-04-25T16:38:35.568Z,14.10
2018-04-25T16:41:02.301Z,14.00
2018-04-25T16:43:29.148Z,13.80
2018-04-25T16:45:56.297Z,13.70
2018-04-25T16:48:23.245Z,13.60
2018-04-25T16:50:49.907Z,13.60
2018-04-25T16:53:16.593Z,13.60
2018-04-25T16:55:44.081Z,13.50
2018-04-25T16:58:10.811Z,13.50
2018-04-25T17:00:37.990Z,13.50
2018-04-25T17:03:04.805Z,13.40
2018-04-25T17:05:31.550Z,13.40
2018-04-25T17:07:58.289Z,13.50
2018-04-25T17:10:25.133Z,13.50
2018-04-25T17:12:51.980Z,13.40
2018-04-25T17:15:18.688Z,13.40
2018-04-25T17:17:46.173Z,13.20
2018-04-25T17:20:12.861Z,13.20
2018-04-25T17:22:39.653Z,13.10
2018-04-25T17:25:07.114Z,13.00
2018-04-25T17:27:33.806Z,12.80
2018-04-25T17:30:01.265Z,11.80
2018-04-25T17:32:28.966Z,11.40
2018-04-25T17:34:55.702Z,11.40
2018-04-25T17:37:22.447Z,11.00
2018-04-25T17:39:49.292Z,10.80
2018-04-25T17:42:16.025Z,10.70
2018-04-25T17:44:43.383Z,10.60
2018-04-25T17:47:10.045Z,10.50
2018-04-25T17:49:36.749Z,10.50
2018-04-25T17:52:03.482Z,10.50
2018-04-25T17:54:30.171Z,10.50
2018-04-25T17:56:56.938Z,10.50
2018-04-25T17:59:23.650Z,10.50
2018-04-25T18:01:50.389Z,10.60
2018-04-25T18:04:17.082Z,10.50
2018-04-25T18:06:43.840Z,10.40
2018-04-25T18:09:10.525Z,10.30
2018-04-25T18:11:38.397Z,10.10
2018-04-25T18:14:05.809Z,10.00
2018-04-25T18:16:32.541Z,10.00
2018-04-25T18:18:59.291Z,9.90
2018-04-25T18:21:26.017Z,9.80
2018-04-25T18:23:52.710Z,9.70
2018-04-25T18:26:19.515Z,9.60
2018-04-25T18:28:46.263Z,9.80
2018-04-25T18:31:15.064Z,9.50
2018-04-25T18:33:41.868Z,9.40
2018-04-25T18:36:08.608Z,9.40
2018-04-25T18:38:35.289Z,9.30
2018-04-25T18:41:02.804Z,9.20
2018-04-25T18:43:29.648Z,9.20
2018-04-25T18:45:56.590Z,9.10
2018-04-25T18:48:23.436Z,9.00
2018-04-25T18:50:50.174Z,9.00
2018-04-25T18:53:17.015Z,8.90
2018-04-25T18:55:43.688Z,8.90
2018-04-25T18:58:10.495Z,8.80
2018-04-25T19:00:37.446Z,8.80
2018-04-25T19:03:04.149Z,8.70
2018-04-25T19:05:30.920Z,8.60
2018-04-25T19:07:57.579Z,8.60
2018-04-25T19:10:24.443Z,8.50
2018-04-25T19:12:51.090Z,8.40
2018-04-25T19:15:17.927Z,8.40
2018-04-25T19:17:44.721Z,8.30
2018-04-25T19:20:11.865Z,8.30
2018-04-25T19:22:38.606Z,8.20
2018-04-25T19:25:05.451Z,8.10
2018-04-25T19:27:32.294Z,8.10
2018-04-25T19:29:59.136Z,8.30
2018-04-25T19:32:25.974Z,8.00
2018-04-25T19:34:52.821Z,7.90
2018-04-25T19:37:21.735Z,7.80
2018-04-25T19:39:48.758Z,7.80
2018-04-25T19:42:15.462Z,7.70
2018-04-25T19:44:43.161Z,7.60
2018-04-25T19:47:10.109Z,7.60
2018-04-25T19:49:36.844Z,7.50
2018-04-25T19:52:03.546Z,7.50
2018-04-25T19:54:31.143Z,7.40
2018-04-25T19:56:57.983Z,7.40
2018-04-25T19:59:24.803Z,7.30
2018-04-25T20:01:51.567Z,7.20
2018-04-25T20:04:18.381Z,7.10
2018-04-25T20:06:45.142Z,7.00
2018-04-25T20:09:12.057Z,7.00
2018-04-25T20:11:38.831Z,6.90
2018-04-25T20:14:05.573Z,6.90
2018-04-25T20:16:32.521Z,6.80
2018-04-25T20:18:59.363Z,6.80
2018-04-25T20:21:26.206Z,6.70
2018-04-25T20:23:53.047Z,6.70
2018-04-25T20:26:20.095Z,6.70
2018-04-25T20:28:47.041Z,6.60
2018-04-25T20:31:14.598Z,6.50
2018-04-25T20:33:41.513Z,6.50
2018-04-25T20:36:08.284Z,6.50
2018-04-25T20:38:35.125Z,6.50
2018-04-25T20:41:01.866Z,6.40
2018-04-25T20:43:28.704Z,6.40
2018-04-25T20:45:55.550Z,6.40
2018-04-25T20:48:22.492Z,6.30
2018-04-25T20:50:49.446Z,6.30
2018-04-25T20:53:17.492Z,6.30
2018-04-25T20:55:44.455Z,6.30
2018-04-25T20:58:11.298Z,6.20
2018-04-25T21:00:38.119Z,6.20
2018-04-25T21:03:04.806Z,6.20
2018-04-25T21:05:31.824Z,6.20
2018-04-25T21:07:58.665Z,6.20
2018-04-25T21:10:25.509Z,6.10
2018-04-25T21:12:52.346Z,6.10
2018-04-25T21:15:19.209Z,6.10
2018-04-25T21:17:45.956Z,6.00
2018-04-25T21:20:14.305Z,6.00
2018-04-25T21:22:41.153Z,6.00
2018-04-25T21:25:08.098Z,6.00
2018-04-25T21:27:34.823Z,6.00
2018-04-25T21:30:01.783Z,6.00
2018-04-25T21:32:29.030Z,5.90
2018-04-25T21:34:55.677Z,5.90
2018-04-25T21:37:22.411Z,5.90
2018-04-25T21:39:51.307Z,5.80
2018-04-25T21:42:18.042Z,5.90
2018-04-25T21:44:44.983Z,5.80
2018-04-25T21:47:11.642Z,5.80
2018-04-25T21:49:38.463Z,5.70
2018-04-25T21:52:05.296Z,5.70
2018-04-25T21:54:32.151Z,5.70
2018-04-25T21:56:58.994Z,5.70
2018-04-25T21:59:25.836Z,5.60
2018-04-25T22:01:52.781Z,5.60
2018-04-25T22:04:19.619Z,5.60
2018-04-25T22:06:46.354Z,5.60
2018-04-25T22:09:13.206Z,5.60
2018-04-25T22:11:40.048Z,5.60
2018-04-25T22:14:06.782Z,5.70
2018-04-25T22:16:33.734Z,5.70
2018-04-25T22:19:00.567Z,5.80
2018-04-25T22:21:27.313Z,5.90
2018-04-25T22:23:54.050Z,6.00
2018-04-25T22:26:21.000Z,6.10
2018-04-25T22:28:47.944Z,6.10
2018-04-25T22:31:14.786Z,6.20
2018-04-25T22:33:41.499Z,6.30
2018-04-25T22:36:08.267Z,6.30
2018-04-25T22:38:35.109Z,6.40
2018-04-25T22:41:01.954Z,6.40
2018-04-25T22:43:28.895Z,6.40
2018-04-25T22:45:55.732Z,6.50
2018-04-25T22:48:22.682Z,6.50
2018-04-25T22:50:49.523Z,6.60
2018-04-25T22:53:16.468Z,6.60
2018-04-25T22:55:43.206Z,6.70
2018-04-25T22:58:10.051Z,6.70
2018-04-25T23:00:36.889Z,6.80
2018-04-25T23:03:03.782Z,6.80
2018-04-25T23:05:31.295Z,6.90
2018-04-25T23:07:58.188Z,6.90
2018-04-25T23:10:24.981Z,6.90
2018-04-25T23:12:51.923Z,7.00
2018-04-25T23:15:18.866Z,7.10
2018-04-25T23:17:45.711Z,7.20
2018-04-25T23:20:12.446Z,7.20
2018-04-25T23:22:39.290Z,7.30
2018-04-25T23:25:06.150Z,7.30
2018-04-25T23:27:33.695Z,7.40
2018-04-25T23:30:00.534Z,7.40
2018-04-25T23:32:27.233Z,7.40
2018-04-25T23:34:54.650Z,7.40
2018-04-25T23:37:21.575Z,7.40
2018-04-25T23:39:48.320Z,7.40
2018-04-25T23:42:15.262Z,7.40
2018-04-25T23:44:42.103Z,7.40
2018-04-25T23:47:09.047Z,7.40
2018-04-25T23:49:35.889Z,7.30
2018-04-25T23:52:02.835Z,7.30
2018-04-25T23:54:29.682Z,7.30
2018-04-25T23:56:56.519Z,7.40
2018-04-25T23:59:23.672Z,7.30
